메인 페이지
METAR-TAF:

METAR-TAF

공항 :

쿠웨이트 국제공항

쿠웨이트, 쿠웨이트

위도: 29-13N, 경도: 047-59E, 고도: 55m

현재 날씨관측

예보는 1 시간 7분 전, 04:00시(UTC)에 발표되었습니다.
12kt
온도 20°C
습도 94%
기압 1014 hPa
시정: 7000m
고도 1500ft 상공 구름 조금
고도 4000ft 상공 구름 보통
고도 8000ft 상공 흐림
약한비

METAR: OKBK 150400Z 10012KT 7000 -RA FEW015 SCT040 OVC080 20/19 Q1014 RETSRA NOSIG

시각: 08:07 (05:07 UTC)

예보

예보는 6 시간 22분 전, 22:45시(UTC)에 발표되었습니다.
예보 대상 시간: 15일 00시부터 16일 06시까지 (UTC)
12kt, 순간 최대 풍속 25kt
시정: 6000m
고도 2000ft 상공 구름 조금
고도 8000ft 상공 구름 많음
일시적
15일 00시부터 15일 15시까지 (UTC)
시정: 3000m
고도 3000ft 상공 구름 보통, 적란운.
확률 30% :
일시적
15일 00시부터 15일 06시까지 (UTC)
시정: 0800m

TAF: OKBK 142245Z 1500/1606 18012G25KT 6000 FEW020 BKN080 TEMPO 1500/1515 3000 TSRA/SHRA SCT030CB PROB30 TEMPO 1500/1506 0800

4,000개 이상의 공항 관측 자료 및 예보 (METAR 및 TAF 보고).

지도상에서 검색 가능한 기상관측소가 노란 점과 빨간 점으로 표시되어 있습니다.

기상관측소 명을 보려면 표시 위로 마우스를 이동하세요.

날씨 관측과 예보를 보려면 클릭하세요.

지도 변경 : 확대하려면 엑스 표시가 있는 녹색 버튼, 축소하려면 빼기 표시가 있는 녹색 버튼, 다음 페이지의 지도를 보려면 녹색 화살표를 클릭하세요.


METAR-TAF: